createdAt,value
2018-02-15T00:00:47.735Z,11.30
2018-02-15T00:03:16.834Z,11.05
2018-02-15T00:05:49.346Z,10.77
2018-02-15T00:08:19.942Z,12.20
2018-02-15T00:10:49.034Z,10.10
2018-02-15T00:13:20.416Z,10.07
2018-02-15T00:15:49.480Z,9.95
2018-02-15T00:18:18.475Z,9.40
2018-02-15T00:20:49.911Z,8.95
2018-02-15T00:23:19.746Z,8.80
2018-02-15T00:25:49.180Z,8.82
2018-02-15T00:28:18.445Z,8.40
2018-02-15T00:30:47.745Z,8.93
2018-02-15T00:33:16.836Z,9.85
2018-02-15T00:35:51.260Z,9.10
2018-02-15T00:38:20.200Z,10.10
2018-02-15T00:40:49.250Z,10.30
2018-02-15T00:43:18.349Z,10.30
2018-02-15T00:45:47.344Z,10.25
2018-02-15T00:48:17.387Z,10.60
2018-02-15T00:50:46.539Z,11.70
2018-02-15T00:53:15.596Z,10.73
2018-02-15T00:55:45.877Z,11.25
2018-02-15T00:58:14.970Z,11.57
2018-02-15T01:00:43.994Z,11.30
2018-02-15T01:03:13.105Z,11.90
2018-02-15T01:05:42.599Z,11.32
2018-02-15T01:08:11.794Z,12.07
2018-02-15T01:10:42.194Z,13.13
2018-02-15T01:13:12.447Z,12.68
2018-02-15T01:15:44.066Z,10.90
2018-02-15T01:18:13.164Z,12.00
2018-02-15T01:20:43.016Z,13.10
2018-02-15T01:23:11.975Z,11.30
2018-02-15T01:25:42.602Z,11.18
2018-02-15T01:28:15.080Z,11.02
2018-02-15T01:30:44.202Z,11.90
2018-02-15T01:33:13.176Z,10.30
2018-02-15T01:35:42.161Z,11.25
2018-02-15T01:38:11.360Z,11.00
2018-02-15T01:40:41.274Z,12.52
2018-02-15T01:43:12.525Z,11.55
2018-02-15T01:45:42.641Z,12.65
2018-02-15T01:48:11.837Z,10.38
2018-02-15T01:50:41.761Z,11.70
2018-02-15T01:53:11.365Z,12.68
2018-02-15T01:55:40.457Z,11.68
2018-02-15T01:58:11.063Z,11.32
2018-02-15T02:00:40.186Z,12.60
2018-02-15T02:03:09.176Z,12.18
2018-02-15T02:05:39.198Z,11.45
2018-02-15T02:08:08.399Z,11.82
2018-02-15T02:10:37.530Z,10.90
2018-02-15T02:13:06.588Z,11.45
2018-02-15T02:15:35.686Z,11.57
2018-02-15T02:18:04.687Z,12.55
2018-02-15T02:20:35.302Z,10.95
2018-02-15T02:23:04.406Z,11.77
2018-02-15T02:25:33.603Z,12.52
2018-02-15T02:28:03.416Z,12.27
2018-02-15T02:30:32.515Z,12.23
2018-02-15T02:33:01.647Z,12.07
2018-02-15T02:35:31.467Z,12.48
2018-02-15T02:38:00.621Z,12.18
2018-02-15T02:40:29.617Z,13.50
2018-02-15T02:43:00.228Z,13.75
2018-02-15T02:45:30.155Z,11.98
2018-02-15T02:47:59.274Z,13.02
2018-02-15T02:50:28.496Z,11.93
2018-02-15T02:52:57.632Z,13.02
2018-02-15T02:55:26.652Z,12.95
2018-02-15T02:57:57.482Z,13.25
2018-02-15T03:00:27.453Z,13.07
2018-02-15T03:02:57.337Z,12.32
2018-02-15T03:05:27.510Z,12.85
2018-02-15T03:07:56.615Z,13.07
2018-02-15T03:10:42.715Z,13.57
2018-02-15T03:13:11.811Z,12.27
2018-02-15T03:15:41.220Z,11.90
2018-02-15T03:18:11.224Z,12.20
2018-02-15T03:20:40.231Z,12.40
2018-02-15T03:23:09.220Z,12.40
2018-02-15T03:25:38.356Z,15.43
2018-02-15T03:28:07.415Z,13.85
2018-02-15T03:30:36.550Z,14.40
2018-02-15T03:33:09.176Z,13.05
2018-02-15T03:35:38.181Z,14.25
2018-02-15T03:38:07.252Z,14.50
2018-02-15T03:40:39.243Z,13.62
2018-02-15T03:43:16.125Z,13.62
2018-02-15T03:45:46.024Z,15.98
2018-02-15T03:48:16.157Z,14.55
2018-02-15T03:50:45.146Z,13.98
2018-02-15T03:53:16.872Z,13.27
2018-02-15T03:55:46.211Z,13.73
2018-02-15T03:58:16.435Z,14.90
2018-02-15T04:00:47.984Z,14.80
2018-02-15T04:03:17.079Z,14.07
2018-02-15T04:05:46.118Z,14.15
2018-02-15T04:08:15.431Z,13.57
2018-02-15T04:10:44.469Z,12.98
2018-02-15T04:13:14.175Z,13.07
2018-02-15T04:15:44.164Z,14.38
2018-02-15T04:18:13.191Z,13.15
2018-02-15T04:20:42.185Z,12.70
2018-02-15T04:23:11.185Z,14.95
2018-02-15T04:25:40.167Z,15.25
2018-02-15T04:28:09.260Z,14.32
2018-02-15T04:30:38.471Z,13.65
2018-02-15T04:33:07.499Z,15.05
2018-02-15T04:35:36.490Z,13.48
2018-02-15T04:38:10.576Z,14.52
2018-02-15T04:40:39.663Z,12.73
2018-02-15T04:43:08.854Z,12.95
2018-02-15T04:45:38.025Z,12.23
2018-02-15T04:48:07.993Z,13.25
2018-02-15T04:50:37.000Z,12.75
2018-02-15T04:53:06.120Z,12.10
2018-02-15T04:55:35.265Z,13.13
2018-02-15T04:58:04.319Z,13.70
2018-02-15T05:00:35.232Z,14.50
2018-02-15T05:03:04.295Z,13.35
2018-02-15T05:05:33.289Z,14.32
2018-02-15T05:08:03.371Z,13.40
2018-02-15T05:10:32.590Z,13.40
2018-02-15T05:13:02.742Z,13.38
2018-02-15T05:15:32.745Z,16.05
2018-02-15T05:18:01.635Z,15.30
2018-02-15T05:20:30.610Z,16.75
2018-02-15T05:23:00.852Z,14.85
2018-02-15T05:25:29.905Z,16.98
2018-02-15T05:27:58.876Z,15.13
2018-02-15T05:30:30.352Z,14.87
2018-02-15T05:32:59.379Z,16.48
2018-02-15T05:35:29.411Z,15.70
2018-02-15T05:37:59.297Z,14.50
2018-02-15T05:40:28.314Z,13.52
2018-02-15T05:42:57.440Z,12.93
2018-02-15T05:45:27.415Z,14.57
2018-02-15T05:47:57.240Z,15.70
2018-02-15T05:50:26.471Z,13.27
2018-02-15T05:52:57.065Z,13.48
2018-02-15T05:55:26.229Z,12.57
2018-02-15T05:57:55.290Z,14.23
2018-02-15T06:00:25.224Z,12.95
2018-02-15T06:02:54.169Z,14.35
2018-02-15T06:05:23.367Z,13.10
2018-02-15T06:07:53.090Z,13.55
2018-02-15T06:10:22.293Z,12.30
2018-02-15T06:12:52.407Z,13.77
2018-02-15T06:15:22.299Z,14.60
2018-02-15T06:17:51.314Z,14.10
2018-02-15T06:20:20.410Z,13.50
2018-02-15T06:22:49.456Z,13.33
2018-02-15T06:25:18.704Z,13.77
2018-02-15T06:27:47.744Z,15.13
2018-02-15T06:30:19.127Z,14.35
2018-02-15T06:32:48.153Z,14.60
2018-02-15T06:35:17.344Z,14.17
2018-02-15T06:37:47.330Z,15.98
2018-02-15T06:40:16.301Z,15.60
2018-02-15T06:42:45.348Z,14.65
2018-02-15T06:45:14.546Z,14.80
2018-02-15T06:47:43.651Z,14.83
2018-02-15T06:50:14.097Z,14.02
2018-02-15T06:52:43.639Z,13.65
2018-02-15T06:55:12.786Z,14.23
2018-02-15T06:57:41.870Z,14.65
2018-02-15T07:00:11.004Z,14.57
2018-02-15T07:02:41.344Z,13.20
2018-02-15T07:05:10.999Z,12.57
2018-02-15T07:07:42.454Z,14.57
2018-02-15T07:10:11.549Z,13.32
2018-02-15T07:12:40.645Z,15.32
2018-02-15T07:15:12.639Z,13.75
2018-02-15T07:17:41.651Z,14.87
2018-02-15T07:20:10.802Z,13.50
2018-02-15T07:22:40.920Z,12.75
2018-02-15T07:25:10.118Z,13.40
2018-02-15T07:27:39.052Z,11.77
2018-02-15T07:30:09.081Z,11.75
2018-02-15T07:32:38.373Z,12.77
2018-02-15T07:35:08.146Z,13.10
2018-02-15T07:37:37.139Z,12.82
2018-02-15T07:40:06.286Z,13.07
2018-02-15T07:42:35.430Z,13.02
2018-02-15T07:45:04.526Z,12.50
2018-02-15T07:47:33.877Z,13.77
2018-02-15T07:50:02.921Z,13.15
2018-02-15T07:52:32.174Z,11.70
2018-02-15T07:55:01.328Z,13.85
2018-02-15T07:57:31.905Z,12.63
2018-02-15T08:00:02.795Z,10.40
2018-02-15T08:02:31.843Z,10.53
2018-02-15T08:05:01.336Z,10.67
2018-02-15T08:07:31.464Z,11.20
2018-02-15T08:10:00.509Z,10.93
2018-02-15T08:12:30.515Z,11.27
2018-02-15T08:14:59.604Z,11.13
2018-02-15T08:17:28.687Z,11.13
2018-02-15T08:19:57.955Z,11.37
2018-02-15T08:22:29.575Z,12.80
2018-02-15T08:24:58.719Z,10.83
2018-02-15T08:27:28.329Z,11.03
2018-02-15T08:29:59.838Z,10.50
2018-02-15T08:32:28.828Z,10.10
2018-02-15T08:34:57.777Z,11.90
2018-02-15T08:37:27.609Z,12.73
2018-02-15T08:39:57.549Z,11.20
2018-02-15T08:42:27.320Z,13.63
2018-02-15T08:44:59.325Z,11.90
2018-02-15T08:47:29.190Z,11.77
2018-02-15T08:49:58.381Z,8.97
2018-02-15T08:52:27.640Z,8.80
2018-02-15T08:54:56.689Z,9.90
2018-02-15T08:57:25.695Z,10.90
2018-02-15T08:59:57.390Z,11.13
2018-02-15T09:02:26.682Z,9.87
2018-02-15T09:04:55.778Z,10.80
2018-02-15T09:07:30.916Z,11.00
2018-02-15T09:10:01.854Z,8.50
2018-02-15T09:12:31.010Z,10.00
2018-02-15T09:15:03.430Z,8.70
2018-02-15T09:17:32.524Z,7.93
2018-02-15T09:20:01.496Z,8.10
2018-02-15T09:22:30.563Z,9.10
2018-02-15T09:25:00.426Z,7.27
2018-02-15T09:27:29.526Z,8.37
2018-02-15T09:29:59.494Z,8.17
2018-02-15T09:32:28.845Z,8.27
2018-02-15T09:34:57.936Z,8.90
2018-02-15T09:37:28.696Z,8.30
2018-02-15T09:39:57.766Z,8.43
2018-02-15T09:42:27.751Z,8.70
2018-02-15T09:44:56.901Z,8.20
2018-02-15T09:47:26.081Z,9.23
2018-02-15T09:49:56.240Z,9.97
2018-02-15T09:52:26.992Z,9.03
2018-02-15T09:54:56.919Z,9.70
2018-02-15T09:57:27.025Z,10.13
2018-02-15T09:59:56.320Z,8.43
2018-02-15T10:02:26.290Z,10.17
2018-02-15T10:04:55.285Z,10.40
2018-02-15T10:07:25.156Z,9.97
2018-02-15T10:09:54.145Z,9.50
2018-02-15T10:12:23.249Z,9.87
2018-02-15T10:14:55.625Z,9.80
2018-02-15T10:17:24.823Z,9.80
2018-02-15T10:19:53.910Z,10.70
2018-02-15T10:22:23.636Z,10.20
2018-02-15T10:24:52.875Z,11.27
2018-02-15T10:27:21.970Z,10.13
2018-02-15T10:29:52.374Z,10.57
2018-02-15T10:32:21.357Z,10.43
2018-02-15T10:34:51.211Z,11.10
2018-02-15T10:37:21.334Z,11.70
2018-02-15T10:39:50.417Z,11.03
2018-02-15T10:42:19.406Z,9.37
2018-02-15T10:44:51.689Z,9.87
2018-02-15T10:47:20.624Z,9.23
2018-02-15T10:49:49.716Z,10.10
2018-02-15T10:52:18.775Z,9.37
2018-02-15T10:54:48.374Z,8.63
2018-02-15T10:57:17.511Z,8.43
2018-02-15T10:59:47.385Z,8.23
2018-02-15T11:02:21.915Z,7.27
2018-02-15T11:04:56.645Z,10.77
2018-02-15T11:07:25.830Z,8.40
2018-02-15T11:09:54.933Z,9.77
2018-02-15T11:12:25.550Z,8.97
2018-02-15T11:14:54.560Z,7.80
2018-02-15T11:17:23.739Z,8.10
2018-02-15T11:19:53.364Z,8.07
2018-02-15T11:22:22.353Z,8.53
2018-02-15T11:24:51.440Z,9.60
2018-02-15T11:27:23.009Z,7.40
2018-02-15T11:29:52.561Z,9.10
2018-02-15T11:32:21.770Z,8.80
2018-02-15T11:34:51.630Z,8.17
2018-02-15T11:37:21.997Z,9.53
2018-02-15T11:39:52.013Z,8.90
2018-02-15T11:42:21.073Z,8.57
2018-02-15T11:44:50.062Z,9.27
2018-02-15T11:47:19.056Z,8.63
2018-02-15T11:49:50.814Z,8.40
2018-02-15T11:52:19.987Z,8.30
2018-02-15T11:54:49.022Z,7.87
2018-02-15T11:57:21.365Z,7.77
2018-02-15T11:59:50.888Z,8.43
2018-02-15T12:02:19.937Z,6.80
2018-02-15T12:04:50.671Z,7.27
2018-02-15T12:07:19.610Z,8.60
2018-02-15T12:09:48.578Z,7.80
2018-02-15T12:12:18.208Z,6.67
2018-02-15T12:14:47.719Z,8.20
2018-02-15T12:17:16.699Z,6.97
2018-02-15T12:19:45.813Z,9.43
2018-02-15T12:22:14.801Z,11.20
2018-02-15T12:24:44.921Z,9.97
2018-02-15T12:27:15.581Z,8.80
2018-02-15T12:29:44.669Z,8.03
2018-02-15T12:32:13.589Z,9.10
2018-02-15T12:34:43.557Z,8.37
2018-02-15T12:37:12.431Z,6.93
2018-02-15T12:39:41.479Z,6.23
2018-02-15T12:42:13.010Z,7.23
2018-02-15T12:44:42.094Z,8.40
2018-02-15T12:47:11.199Z,7.70
2018-02-15T12:49:41.934Z,6.73
2018-02-15T12:52:10.999Z,7.20
2018-02-15T12:54:40.114Z,7.57
2018-02-15T12:57:10.034Z,7.10
2018-02-15T12:59:39.849Z,6.97
2018-02-15T13:02:08.888Z,7.30
2018-02-15T13:04:38.668Z,7.63
2018-02-15T13:07:07.651Z,7.30
2018-02-15T13:09:36.825Z,6.97
2018-02-15T13:12:06.766Z,6.33
2018-02-15T13:14:35.961Z,6.20
2018-02-15T13:17:05.086Z,5.93
2018-02-15T13:19:46.750Z,6.87
2018-02-15T13:22:27.430Z,7.00
2018-02-15T13:24:58.770Z,6.70
2018-02-15T13:27:39.732Z,8.13
2018-02-15T13:30:14.783Z,8.10
2018-02-15T13:32:45.580Z,7.13
2018-02-15T13:35:14.604Z,7.80
2018-02-15T13:37:43.805Z,7.60
2018-02-15T13:40:13.015Z,7.93
2018-02-15T13:42:42.096Z,7.13
2018-02-15T13:45:11.972Z,7.47
2018-02-15T13:47:41.108Z,7.77
2018-02-15T13:50:11.953Z,7.70
2018-02-15T13:52:44.420Z,8.40
2018-02-15T13:55:14.586Z,8.80
2018-02-15T13:57:43.640Z,7.23
2018-02-15T14:00:15.400Z,7.70
2018-02-15T14:02:44.394Z,8.43
2018-02-15T14:05:13.695Z,7.40
2018-02-15T14:07:42.857Z,7.60
2018-02-15T14:10:11.991Z,7.03
2018-02-15T14:12:41.956Z,6.67
2018-02-15T14:15:11.855Z,6.23
2018-02-15T14:17:41.835Z,7.00
2018-02-15T14:20:11.634Z,6.40
2018-02-15T14:22:40.859Z,7.13
2018-02-15T14:25:09.846Z,8.43
2018-02-15T14:27:39.618Z,7.20
2018-02-15T14:30:09.669Z,7.33
2018-02-15T14:32:39.335Z,6.23
2018-02-15T14:35:08.434Z,6.57
2018-02-15T14:37:37.675Z,8.70
2018-02-15T14:40:07.439Z,8.90
2018-02-15T14:42:36.382Z,7.87
2018-02-15T14:45:06.381Z,8.90
2018-02-15T14:47:36.445Z,9.13
2018-02-15T14:50:05.474Z,7.80
2018-02-15T14:52:37.100Z,7.70
2018-02-15T14:55:07.172Z,8.57
2018-02-15T14:57:36.321Z,10.57
2018-02-15T15:00:05.895Z,9.07
2018-02-15T15:02:35.103Z,10.10
2018-02-15T15:05:04.291Z,10.70
2018-02-15T15:07:34.254Z,12.60
2018-02-15T15:10:04.537Z,11.50
2018-02-15T15:12:33.861Z,12.20
2018-02-15T15:15:03.739Z,11.45
2018-02-15T15:17:33.541Z,10.35
2018-02-15T15:20:02.654Z,8.75
2018-02-15T15:22:32.622Z,12.45
2018-02-15T15:25:02.634Z,9.30
2018-02-15T15:27:31.686Z,9.70
2018-02-15T15:30:01.544Z,7.65
2018-02-15T15:32:31.725Z,10.30
2018-02-15T15:35:00.817Z,8.80
2018-02-15T15:37:30.018Z,13.77
2018-02-15T15:39:59.117Z,14.23
2018-02-15T15:42:28.305Z,18.90
2018-02-15T15:44:57.404Z,36.47
2018-02-15T15:47:26.550Z,19.58
2018-02-15T15:49:55.678Z,7.78
2018-02-15T15:52:29.947Z,13.70
2018-02-15T15:54:58.981Z,19.08
2018-02-15T15:57:28.111Z,10.85
2018-02-15T15:59:58.129Z,6.70
2018-02-15T16:02:27.944Z,8.85
2018-02-15T16:04:57.099Z,8.15
2018-02-15T16:07:31.049Z,7.85
2018-02-15T16:10:00.970Z,13.25
2018-02-15T16:12:29.956Z,6.30
2018-02-15T16:14:58.951Z,5.53
2018-02-15T16:17:28.459Z,7.80
2018-02-15T16:19:58.235Z,4.18
2018-02-15T16:22:28.104Z,4.15
2018-02-15T16:24:57.132Z,7.15
2018-02-15T16:27:26.345Z,5.75
2018-02-15T16:29:58.605Z,4.93
2018-02-15T16:32:27.808Z,6.43
2018-02-15T16:34:57.561Z,6.25
2018-02-15T16:37:26.646Z,7.30
2018-02-15T16:39:55.752Z,12.27
2018-02-15T16:42:24.719Z,3.65
2018-02-15T16:44:57.878Z,3.87
2018-02-15T16:47:26.934Z,5.30
2018-02-15T16:49:55.985Z,4.90
2018-02-15T16:52:25.126Z,4.10
2018-02-15T16:54:54.061Z,6.05
2018-02-15T16:57:26.920Z,5.20
2018-02-15T16:59:56.566Z,6.82
2018-02-15T17:02:25.820Z,6.18
2018-02-15T17:04:55.167Z,5.28
2018-02-15T17:07:25.346Z,5.25
2018-02-15T17:09:54.381Z,7.30
2018-02-15T17:12:25.988Z,9.40
2018-02-15T17:14:56.668Z,7.62
2018-02-15T17:17:25.943Z,7.70
2018-02-15T17:19:55.144Z,8.35
2018-02-15T17:22:24.185Z,7.78
2018-02-15T17:24:53.280Z,9.07
2018-02-15T17:27:24.064Z,8.48
2018-02-15T17:29:54.945Z,8.18
2018-02-15T17:32:28.006Z,7.55
2018-02-15T17:34:57.912Z,5.82
2018-02-15T17:37:27.295Z,6.03
2018-02-15T17:39:58.160Z,5.90
2018-02-15T17:42:27.355Z,4.80
2018-02-15T17:44:56.801Z,7.30
2018-02-15T17:47:25.911Z,7.45
2018-02-15T17:49:55.822Z,7.55
2018-02-15T17:52:24.964Z,7.65
2018-02-15T17:54:54.839Z,7.00
2018-02-15T17:57:24.191Z,7.50
2018-02-15T17:59:56.142Z,7.07
2018-02-15T18:02:25.183Z,7.70
2018-02-15T18:04:54.233Z,9.20
2018-02-15T18:07:24.351Z,10.75
2018-02-15T18:09:53.344Z,11.20
2018-02-15T18:12:22.552Z,10.63
2018-02-15T18:14:52.770Z,11.50
2018-02-15T18:17:22.278Z,10.48
2018-02-15T18:19:51.365Z,10.50
2018-02-15T18:22:23.237Z,9.32
2018-02-15T18:24:52.335Z,10.02
2018-02-15T18:27:21.738Z,9.90
2018-02-15T18:29:51.657Z,9.73
2018-02-15T18:32:21.050Z,9.90
2018-02-15T18:34:50.461Z,9.30
2018-02-15T18:37:19.546Z,9.55
2018-02-15T18:39:48.438Z,11.35
2018-02-15T18:42:17.470Z,8.65
2018-02-15T18:44:49.811Z,12.48
2018-02-15T18:47:18.865Z,10.45
2018-02-15T18:49:48.369Z,11.68
2018-02-15T18:52:19.577Z,9.10
2018-02-15T18:54:49.633Z,10.10
2018-02-15T18:57:19.157Z,9.00
2018-02-15T18:59:51.429Z,9.90
2018-02-15T19:02:21.684Z,9.68
2018-02-15T19:04:51.495Z,10.00
2018-02-15T19:07:22.537Z,9.15
2018-02-15T19:09:52.113Z,9.45
2018-02-15T19:12:21.494Z,9.50
2018-02-15T19:14:50.786Z,9.43
2018-02-15T19:17:20.114Z,8.13
2018-02-15T19:19:52.191Z,9.02
2018-02-15T19:22:21.677Z,9.60
2018-02-15T19:24:51.078Z,8.45
2018-02-15T19:27:21.422Z,9.40
2018-02-15T19:29:50.780Z,10.10
2018-02-15T19:32:21.053Z,9.13
2018-02-15T19:34:51.647Z,8.32
2018-02-15T19:37:21.188Z,10.07
2018-02-15T19:39:51.901Z,8.85
2018-02-15T19:42:22.064Z,9.15
2018-02-15T19:44:51.529Z,10.38
2018-02-15T19:47:21.637Z,10.68
2018-02-15T19:49:52.015Z,10.10
2018-02-15T19:52:21.301Z,9.13
2018-02-15T19:54:51.767Z,9.02
2018-02-15T19:57:21.229Z,9.80
2018-02-15T19:59:50.634Z,11.48
2018-02-15T20:02:20.130Z,9.70
2018-02-15T20:04:50.410Z,9.73
2018-02-15T20:07:20.376Z,10.45
2018-02-15T20:09:49.798Z,9.10
2018-02-15T20:12:19.106Z,10.35
2018-02-15T20:14:48.485Z,9.35
2018-02-15T20:17:18.230Z,8.40
2018-02-15T20:19:53.093Z,8.93
2018-02-15T20:22:22.966Z,8.20
2018-02-15T20:24:53.054Z,8.98
2018-02-15T20:27:30.697Z,9.93
2018-02-15T20:30:00.880Z,9.73
2018-02-15T20:32:30.265Z,10.05
2018-02-15T20:34:59.696Z,9.93
2018-02-15T20:37:34.435Z,10.05
2018-02-15T20:40:09.265Z,10.52
2018-02-15T20:42:38.538Z,10.27
2018-02-15T20:45:07.723Z,12.13
2018-02-15T20:47:38.904Z,10.32
2018-02-15T20:50:13.839Z,11.20
2018-02-15T20:52:48.705Z,9.77
2018-02-15T20:55:23.707Z,9.40
2018-02-15T20:57:54.254Z,10.27
2018-02-15T21:00:24.818Z,9.55
2018-02-15T21:02:54.045Z,11.30
2018-02-15T21:05:23.869Z,17.27
2018-02-15T21:07:53.791Z,11.43
2018-02-15T21:10:24.020Z,11.18
2018-02-15T21:12:54.448Z,10.52
2018-02-15T21:15:23.547Z,10.93
2018-02-15T21:17:52.629Z,9.57
2018-02-15T21:20:22.012Z,9.40
2018-02-15T21:22:51.955Z,10.02
2018-02-15T21:25:20.952Z,10.32
2018-02-15T21:27:50.103Z,8.70
2018-02-15T21:30:19.344Z,10.98
2018-02-15T21:32:49.161Z,10.55
2018-02-15T21:35:18.988Z,10.85
2018-02-15T21:37:48.236Z,9.35
2018-02-15T21:40:18.088Z,10.35
2018-02-15T21:42:47.303Z,10.65
2018-02-15T21:45:16.815Z,10.63
2018-02-15T21:47:45.793Z,10.80
2018-02-15T21:50:15.108Z,9.35
2018-02-15T21:52:44.351Z,10.45
2018-02-15T21:55:15.482Z,9.25
2018-02-15T21:57:45.714Z,9.88
2018-02-15T22:00:16.530Z,10.48
2018-02-15T22:02:45.805Z,9.90
2018-02-15T22:05:15.117Z,10.10
2018-02-15T22:07:45.971Z,10.00
2018-02-15T22:10:16.251Z,12.40
2018-02-15T22:12:45.310Z,10.43
2018-02-15T22:15:14.640Z,10.32
2018-02-15T22:17:43.987Z,10.57
2018-02-15T22:20:13.049Z,10.73
2018-02-15T22:22:42.276Z,10.75
2018-02-15T22:25:12.569Z,10.68
2018-02-15T22:27:42.652Z,11.70
2018-02-15T22:30:12.828Z,12.05
2018-02-15T22:32:42.930Z,13.18
2018-02-15T22:35:12.393Z,11.30
2018-02-15T22:37:42.550Z,11.55
2018-02-15T22:40:11.900Z,10.55
2018-02-15T22:42:43.306Z,11.38
2018-02-15T22:45:15.184Z,12.15
2018-02-15T22:47:44.829Z,11.73
2018-02-15T22:50:13.980Z,11.73
2018-02-15T22:52:43.151Z,11.18
2018-02-15T22:55:14.718Z,12.10
2018-02-15T22:57:44.039Z,12.60
2018-02-15T23:00:13.141Z,11.50
2018-02-15T23:02:42.698Z,11.57
2018-02-15T23:05:13.493Z,11.10
2018-02-15T23:07:42.684Z,10.35
2018-02-15T23:10:12.813Z,11.90
2018-02-15T23:12:42.136Z,10.80
2018-02-15T23:15:11.734Z,10.65
2018-02-15T23:17:40.840Z,12.02
2018-02-15T23:20:10.757Z,11.43
2018-02-15T23:22:40.842Z,10.77
2018-02-15T23:25:09.867Z,11.12
2018-02-15T23:27:39.065Z,10.80
2018-02-15T23:30:08.265Z,12.00
2018-02-15T23:32:37.454Z,11.98
2018-02-15T23:35:07.441Z,11.65
2018-02-15T23:37:37.658Z,12.63
2018-02-15T23:40:06.767Z,11.70
2018-02-15T23:42:37.595Z,9.85
2018-02-15T23:45:06.618Z,11.63
2018-02-15T23:47:35.790Z,10.52
2018-02-15T23:50:05.738Z,11.32
2018-02-15T23:52:35.859Z,10.52
2018-02-15T23:55:04.917Z,10.45
2018-02-15T23:57:34.107Z,10.13
